Time;durP1;ratioP1;P1;durP2;ratioP2;P2;SDS_P1;SDS_P2;PMS_P1;PMS_P2;Temp;Humidity;BMP_temperature;BMP_pressure;BME280_temperature;BME280_humidity;BME280_pressure;Samples;Min_cycle;Max_cycle;Signal;HPM_P1;HPM_P2
2022/03/12 00:00:30;;;;;;;5.13;2.47;;;;;;;15.68;17.90;99936.28;5112494;28;20507;-72
2022/03/12 00:02:57;;;;;;;3.65;2.10;;;;;;;15.68;18.07;99942.47;5115714;28;20035;-72
2022/03/12 00:05:25;;;;;;;3.22;2.22;;;;;;;15.73;17.75;99944.72;5133288;27;20030;-72
2022/03/12 00:07:51;;;;;;;4.50;2.30;;;;;;;15.76;17.68;99947.09;5113236;27;20034;-71
2022/03/12 00:10:19;;;;;;;4.30;2.50;;;;;;;15.79;18.01;99949.47;5111735;28;20035;-70
2022/03/12 00:12:44;;;;;;;5.93;2.28;;;;;;;15.83;18.04;99944.69;5110644;28;20513;-71
2022/03/12 00:15:12;;;;;;;6.38;2.30;;;;;;;15.85;17.99;99946.25;5128387;28;20035;-72
2022/03/12 00:17:44;;;;;;;4.78;2.50;;;;;;;15.88;18.00;99942.47;5118273;28;20070;-70
2022/03/12 00:20:13;;;;;;;3.90;2.35;;;;;;;15.89;18.26;99941.44;5112367;28;20118;-73
2022/03/12 00:22:43;;;;;;;3.97;2.80;;;;;;;15.93;18.12;99950.84;5111824;28;20410;-71
2022/03/12 00:25:11;;;;;;;4.10;2.42;;;;;;;15.89;17.98;99935.28;5111205;28;20646;-71
2022/03/12 00:27:39;;;;;;;8.18;2.38;;;;;;;15.97;18.05;99940.72;5112240;28;20175;-73
2022/03/12 00:30:07;;;;;;;4.35;2.53;;;;;;;16.05;17.77;99934.66;5112743;28;20402;-71
2022/03/12 00:32:36;;;;;;;5.15;2.20;;;;;;;16.05;17.63;99930.16;5110594;28;20048;-71
2022/03/12 00:35:03;;;;;;;4.22;2.17;;;;;;;16.08;17.93;99927.22;5112213;28;20494;-71
2022/03/12 00:37:28;;;;;;;6.47;2.35;;;;;;;16.10;17.89;99930.56;5112527;28;20042;-74
2022/03/12 00:39:54;;;;;;;9.20;2.90;;;;;;;16.00;17.93;99911.06;5112394;28;20405;-72
2022/03/12 00:42:19;;;;;;;4.10;2.67;;;;;;;16.15;17.75;99920.28;5111125;28;20510;-72
2022/03/12 00:44:44;;;;;;;2.55;1.77;;;;;;;16.17;17.90;99923.66;5109775;28;20039;-70
2022/03/12 00:47:10;;;;;;;6.13;2.33;;;;;;;16.15;18.08;99920.28;5112089;28;20035;-72
2022/03/12 00:49:35;;;;;;;4.43;2.25;;;;;;;16.15;17.75;99920.28;5112020;28;20092;-75
2022/03/12 00:52:01;;;;;;;4.72;2.35;;;;;;;16.14;17.92;99910.59;5111459;28;20027;-73
2022/03/12 00:54:27;;;;;;;3.92;2.38;;;;;;;16.12;18.07;99909.91;5111092;28;20031;-74
2022/03/12 00:56:52;;;;;;;4.63;2.72;;;;;;;16.09;18.17;99902.22;5111595;28;20549;-70
2022/03/12 00:59:18;;;;;;;3.75;2.30;;;;;;;16.08;18.33;99900.53;5111299;28;20059;-71
2022/03/12 01:01:43;;;;;;;4.53;2.35;;;;;;;16.05;18.36;99903.47;5111203;28;20028;-74
2022/03/12 01:04:09;;;;;;;3.97;2.35;;;;;;;16.04;18.31;99898.28;5112040;28;20106;-74
2022/03/12 01:06:35;;;;;;;7.10;3.10;;;;;;;16.02;18.30;99899.28;5115598;28;20048;-77
2022/03/12 01:09:01;;;;;;;5.15;2.53;;;;;;;16.04;18.02;99901.81;5115828;28;20569;-73
2022/03/12 01:11:27;;;;;;;3.78;2.40;;;;;;;16.04;18.24;99895.59;5115262;28;20039;-74
2022/03/12 01:13:52;;;;;;;4.30;1.98;;;;;;;16.02;18.18;99890.44;5115873;28;20031;-75
2022/03/12 01:16:18;;;;;;;4.22;2.20;;;;;;;16.02;18.09;99887.75;5115631;28;20508;-76
2022/03/12 01:18:44;;;;;;;4.60;2.40;;;;;;;16.02;18.04;99885.09;5115635;28;20034;-76
2022/03/12 01:21:17;;;;;;;3.28;2.20;;;;;;;16.02;18.21;99893.94;5111845;28;20023;-74
2022/03/12 01:23:45;;;;;;;5.82;2.22;;;;;;;15.97;18.49;99882.88;5103848;28;20524;-74
2022/03/12 01:26:11;;;;;;;3.58;2.03;;;;;;;16.00;18.53;99882.56;5115613;28;20039;-73
2022/03/12 01:28:37;;;;;;;3.35;2.00;;;;;;;16.04;18.74;99893.78;5115688;28;20390;-72
2022/03/12 01:31:04;;;;;;;3.92;2.10;;;;;;;16.02;18.56;99879.75;5114113;27;20032;-73
2022/03/12 01:33:30;;;;;;;4.35;2.20;;;;;;;16.05;18.48;99883.94;5115055;27;20063;-71
2022/03/12 01:35:57;;;;;;;3.47;2.28;;;;;;;16.05;18.24;99874.13;5114565;28;20066;-73
2022/03/12 01:38:30;;;;;;;4.32;2.40;;;;;;;16.07;18.83;99872.16;5108481;28;20092;-73
2022/03/12 01:40:56;;;;;;;4.60;2.33;;;;;;;16.07;18.83;99865.94;5114586;28;20032;-72
2022/03/12 01:43:22;;;;;;;4.28;2.63;;;;;;;16.04;18.43;99877.78;5115067;28;20027;-72
2022/03/12 01:45:48;;;;;;;4.82;2.42;;;;;;;16.02;18.57;99872.59;5114681;28;20111;-72
2022/03/12 01:48:13;;;;;;;4.80;2.30;;;;;;;16.02;18.71;99874.41;5114685;28;20027;-74
2022/03/12 01:50:39;;;;;;;2.83;2.00;;;;;;;16.01;19.03;99872.72;5114315;28;20020;-72
2022/03/12 01:53:08;;;;;;;3.28;2.20;;;;;;;16.01;18.55;99870.91;5114802;28;20372;-72
2022/03/12 01:55:39;;;;;;;4.68;2.17;;;;;;;15.98;18.90;99860.53;5114324;28;20058;-71
2022/03/12 01:58:06;;;;;;;4.25;2.30;;;;;;;15.98;19.01;99871.19;5114050;28;20035;-72
2022/03/12 02:00:46;;;;;;;3.13;2.25;;;;;;;15.96;19.22;99864.31;5114303;28;20024;-69
2022/03/12 02:03:13;;;;;;;3.27;2.37;;;;;;;15.96;18.92;99870.50;5114376;28;20114;-70
2022/03/12 02:05:40;;;;;;;2.95;2.05;;;;;;;15.97;19.04;99871.34;5113820;28;20051;-70
2022/03/12 02:08:07;;;;;;;3.33;2.05;;;;;;;15.95;18.93;99873.34;5113863;28;20163;-69
2022/03/12 02:10:34;;;;;;;3.53;2.55;;;;;;;15.92;19.11;99863.78;5109093;28;20028;-70
2022/03/12 02:13:00;;;;;;;4.00;2.45;;;;;;;15.93;19.08;99878.81;5092250;28;20039;-70
2022/03/12 02:15:25;;;;;;;3.75;2.38;;;;;;;15.91;19.14;99872.78;5093399;28;20036;-70
2022/03/12 02:17:51;;;;;;;4.47;2.80;;;;;;;15.91;19.20;99870.09;5102978;28;20034;-70
2022/03/12 02:20:19;;;;;;;4.82;2.47;;;;;;;15.92;19.25;99869.13;5113928;28;20031;-69
2022/03/12 02:22:45;;;;;;;3.40;2.28;;;;;;;15.91;19.49;99871.94;5113792;28;20039;-69
2022/03/12 02:25:12;;;;;;;3.42;2.10;;;;;;;15.92;19.16;99860.28;5113366;28;20070;-70
2022/03/12 02:27:38;;;;;;;3.92;2.30;;;;;;;15.90;19.57;99867.59;5113452;28;20039;-70
2022/03/12 02:30:08;;;;;;;3.35;2.17;;;;;;;15.89;19.67;99855.22;5113738;28;20372;-70
2022/03/12 02:32:36;;;;;;;3.95;2.20;;;;;;;15.88;19.48;99853.56;5113298;28;20106;-70
2022/03/12 02:35:02;;;;;;;3.50;2.35;;;;;;;15.88;19.52;99854.41;5113468;28;20035;-70
2022/03/12 02:37:33;;;;;;;4.25;2.42;;;;;;;15.88;19.27;99848.22;5113234;28;20527;-70
2022/03/12 02:40:06;;;;;;;3.05;2.17;;;;;;;15.88;19.76;99849.06;5113487;28;20394;-70
2022/03/12 02:42:37;;;;;;;3.22;2.15;;;;;;;15.86;19.40;99849.19;5112610;28;20050;-70
2022/03/12 02:45:07;;;;;;;4.13;2.13;;;;;;;15.84;19.78;99851.13;5113302;28;20039;-71
2022/03/12 02:47:35;;;;;;;3.92;2.17;;;;;;;15.84;19.71;99848.47;5113082;28;20632;-70
2022/03/12 02:50:07;;;;;;;3.60;2.67;;;;;;;15.86;19.63;99843.88;5113180;28;20043;-71
2022/03/12 02:52:41;;;;;;;3.38;2.28;;;;;;;15.85;19.75;99842.19;5113296;28;20042;-70
2022/03/12 02:55:13;;;;;;;4.07;2.65;;;;;;;15.85;19.96;99842.19;5112922;28;20035;-70
2022/03/12 02:57:46;;;;;;;7.82;2.38;;;;;;;15.86;20.17;99837.69;5112886;28;20035;-70
2022/03/12 03:00:14;;;;;;;4.28;2.97;;;;;;;15.86;20.09;99835.03;5106901;28;20042;-70
2022/03/12 03:02:41;;;;;;;2.80;1.92;;;;;;;15.86;19.95;99832.38;5092460;28;20035;-70
2022/03/12 03:05:07;;;;;;;4.50;2.38;;;;;;;15.89;19.95;99828.56;5092523;28;20036;-70
2022/03/12 03:07:35;;;;;;;5.53;3.35;;;;;;;15.87;19.91;99828.72;5092424;28;20097;-70
2022/03/12 03:10:02;;;;;;;4.15;2.22;;;;;;;15.86;20.12;99827.84;5092473;28;20024;-71
2022/03/12 03:12:28;;;;;;;4.20;2.75;;;;;;;15.86;20.05;99822.50;5112595;28;20038;-71
2022/03/12 03:14:53;;;;;;;3.95;2.50;;;;;;;15.86;20.05;99822.50;5112730;28;20122;-71
2022/03/12 03:17:19;;;;;;;3.55;2.38;;;;;;;15.86;19.88;99821.69;5112563;28;20080;-71
2022/03/12 03:19:45;;;;;;;6.32;2.78;;;;;;;15.86;20.12;99819.84;5112592;28;20482;-71
2022/03/12 03:22:12;;;;;;;3.72;2.42;;;;;;;15.86;20.02;99819.84;5112459;28;20462;-69
2022/03/12 03:24:37;;;;;;;6.25;2.30;;;;;;;15.91;19.97;99815.91;5112422;28;20555;-69
2022/03/12 03:27:03;;;;;;;4.50;2.55;;;;;;;15.91;19.76;99807.91;5112655;28;20027;-69
2022/03/12 03:29:33;;;;;;;3.92;2.03;;;;;;;15.92;20.08;99807.72;5112559;28;20035;-70
2022/03/12 03:32:01;;;;;;;4.15;3.00;;;;;;;15.91;19.83;99807.91;5112535;28;20036;-71
2022/03/12 03:34:27;;;;;;;3.65;2.40;;;;;;;15.90;20.13;99806.22;5112614;28;20043;-69
2022/03/12 03:36:54;;;;;;;4.07;2.40;;;;;;;15.87;19.84;99796.69;5112433;28;20039;-70
2022/03/12 03:39:19;;;;;;;3.42;2.45;;;;;;;15.87;19.84;99810.03;5112718;28;20486;-70
2022/03/12 03:41:45;;;;;;;4.50;2.30;;;;;;;15.85;20.08;99804.00;5112194;28;20150;-71
2022/03/12 03:44:11;;;;;;;3.35;2.42;;;;;;;15.86;20.10;99825.19;5112119;28;20084;-70
2022/03/12 03:46:37;;;;;;;4.72;2.63;;;;;;;15.86;19.98;99827.84;5111888;28;20486;-70
2022/03/12 03:49:04;;;;;;;4.88;2.58;;;;;;;15.88;19.95;99826.88;5108825;28;20080;-70
2022/03/12 03:51:30;;;;;;;4.50;2.22;;;;;;;15.86;20.02;99825.19;5091445;28;20040;-71
2022/03/12 03:53:56;;;;;;;3.47;2.38;;;;;;;15.93;20.33;99829.94;5091811;28;20046;-71
2022/03/12 03:56:22;;;;;;;3.28;2.25;;;;;;;15.96;20.38;99829.63;5092118;28;20031;-70
2022/03/12 03:58:48;;;;;;;4.28;2.60;;;;;;;16.01;20.05;99836.22;5091906;28;20040;-71
2022/03/12 04:01:21;;;;;;;3.03;2.08;;;;;;;16.02;20.44;99845.06;5092140;28;20399;-71
2022/03/12 04:03:48;;;;;;;3.60;2.45;;;;;;;16.02;20.42;99853.91;5091916;28;20099;-70
2022/03/12 04:06:16;;;;;;;4.07;2.47;;;;;;;16.00;20.11;99852.38;5091697;28;20096;-71
2022/03/12 04:08:42;;;;;;;3.30;2.22;;;;;;;16.00;20.39;99855.88;5091668;28;20032;-70
2022/03/12 04:11:14;;;;;;;3.33;2.40;;;;;;;15.99;20.28;99848.00;5101057;28;20031;-70
2022/03/12 04:13:40;;;;;;;4.43;2.45;;;;;;;15.98;20.53;99839.19;5112186;28;20464;-70
2022/03/12 04:16:06;;;;;;;4.68;2.60;;;;;;;15.99;20.53;99838.19;5112077;28;20133;-71
2022/03/12 04:18:32;;;;;;;3.58;2.33;;;;;;;16.04;20.29;99850.22;5112106;28;20118;-70
2022/03/12 04:20:58;;;;;;;3.60;2.55;;;;;;;16.07;20.22;99850.78;5112028;28;20116;-71
2022/03/12 04:23:25;;;;;;;3.95;2.92;;;;;;;16.11;20.23;99848.66;5112206;28;20040;-71
2022/03/12 04:25:53;;;;;;;4.78;2.80;;;;;;;16.12;20.38;99845.00;5111747;28;20023;-71
2022/03/12 04:28:20;;;;;;;4.30;2.60;;;;;;;16.09;20.23;99845.28;5112090;28;20059;-71
2022/03/12 04:30:46;;;;;;;6.05;3.33;;;;;;;16.06;20.42;99854.44;5112009;28;20431;-71
2022/03/12 04:33:13;;;;;;;3.38;2.35;;;;;;;16.03;19.99;99852.06;5111645;28;20042;-72
2022/03/12 04:35:41;;;;;;;4.38;2.90;;;;;;;16.04;20.58;99856.41;5110412;28;20031;-71
2022/03/12 04:38:07;;;;;;;3.95;2.75;;;;;;;16.04;20.46;99850.22;5112099;28;20146;-69
2022/03/12 04:40:33;;;;;;;5.97;2.80;;;;;;;16.05;20.31;99847.44;5113915;28;20031;-70
2022/03/12 04:42:59;;;;;;;5.70;2.95;;;;;;;16.08;20.44;99856.97;5116040;28;20105;-69
2022/03/12 04:45:26;;;;;;;3.22;2.50;;;;;;;16.09;20.41;99856.81;5115891;28;20474;-70
2022/03/12 04:47:53;;;;;;;6.22;3.08;;;;;;;16.08;20.37;99857.81;5115810;28;20063;-70
2022/03/12 04:50:20;;;;;;;4.70;2.20;;;;;;;16.07;20.38;99861.47;5115326;28;20034;-70
2022/03/12 04:52:49;;;;;;;8.50;3.08;;;;;;;16.08;20.24;99865.81;5115284;28;20035;-70
2022/03/12 04:55:19;;;;;;;4.57;2.72;;;;;;;16.08;20.54;99871.16;5115638;28;20067;-69
2022/03/12 04:57:45;;;;;;;5.60;2.78;;;;;;;16.07;20.20;99866.81;5115577;28;20453;-70
2022/03/12 05:00:17;;;;;;;5.03;2.88;;;;;;;16.07;20.85;99865.94;5115381;28;20042;-69
2022/03/12 05:02:45;;;;;;;4.70;2.17;;;;;;;16.06;20.81;99865.13;5115734;28;20372;-69
2022/03/12 05:05:12;;;;;;;5.00;2.58;;;;;;;16.07;20.50;99865.94;5115139;28;20042;-70
2022/03/12 05:07:46;;;;;;;4.68;3.35;;;;;;;16.06;20.42;99861.59;5115348;28;20035;-70
2022/03/12 05:10:16;;;;;;;3.60;2.47;;;;;;;16.05;20.72;99862.59;5113026;27;20039;-70
2022/03/12 05:12:43;;;;;;;5.03;3.00;;;;;;;16.07;20.72;99860.63;5094616;28;20074;-70
2022/03/12 05:15:11;;;;;;;4.45;2.63;;;;;;;16.08;20.73;99863.16;5094876;28;20036;-70
2022/03/12 05:17:43;;;;;;;4.72;2.83;;;;;;;16.08;20.89;99859.63;5095080;28;20055;-71
2022/03/12 05:20:10;;;;;;;4.20;2.67;;;;;;;16.10;20.97;99866.50;5094675;28;20031;-71
2022/03/12 05:22:36;;;;;;;3.53;2.60;;;;;;;16.09;20.53;99864.84;5094671;28;20112;-71
2022/03/12 05:25:03;;;;;;;4.57;2.80;;;;;;;16.11;21.03;99860.16;5094262;28;20056;-71
2022/03/12 05:27:28;;;;;;;4.60;2.75;;;;;;;16.11;21.22;99857.50;5111665;28;20058;-71
2022/03/12 05:29:54;;;;;;;4.15;2.60;;;;;;;16.15;21.23;99852.72;5113488;28;20028;-71
2022/03/12 05:32:20;;;;;;;4.35;3.10;;;;;;;16.19;21.00;99843.41;5113285;28;20055;-71
2022/03/12 05:34:45;;;;;;;5.05;3.08;;;;;;;16.17;20.80;99835.56;5114676;27;20120;-71
2022/03/12 05:37:11;;;;;;;3.85;2.63;;;;;;;16.21;21.42;99843.28;5114388;28;20039;-71
2022/03/12 05:39:37;;;;;;;3.90;3.00;;;;;;;16.22;21.23;99852.97;5114351;28;20032;-71
2022/03/12 05:42:05;;;;;;;4.20;2.92;;;;;;;16.22;20.89;99856.47;5114230;28;20054;-71
2022/03/12 05:44:38;;;;;;;5.20;3.00;;;;;;;16.23;21.16;99851.97;5114574;28;20396;-71
2022/03/12 05:47:04;;;;;;;4.72;2.65;;;;;;;16.26;21.19;99848.97;5114448;28;20475;-70
2022/03/12 05:49:30;;;;;;;4.65;2.75;;;;;;;16.27;21.32;99840.84;5114344;28;20140;-71
2022/03/12 05:51:56;;;;;;;4.40;2.90;;;;;;;16.29;21.19;99849.53;5113199;28;20035;-71
2022/03/12 05:54:22;;;;;;;3.65;2.72;;;;;;;16.30;21.13;99853.88;5114466;28;20435;-72
2022/03/12 05:56:48;;;;;;;3.45;2.47;;;;;;;16.30;20.97;99845.03;5114139;28;20531;-71
2022/03/12 05:59:13;;;;;;;5.53;2.95;;;;;;;16.31;21.23;99850.22;5114301;28;20069;-70
2022/03/12 06:01:39;;;;;;;4.47;2.63;;;;;;;16.32;21.17;99851.88;5093291;28;20517;-69
2022/03/12 06:04:05;;;;;;;6.88;2.95;;;;;;;16.40;21.43;99859.13;5094204;28;20070;-70
2022/03/12 06:06:32;;;;;;;5.70;3.45;;;;;;;16.42;21.07;99843.81;5093670;28;20044;-70
2022/03/12 06:08:58;;;;;;;4.93;2.63;;;;;;;16.46;21.04;99844.38;5094178;28;20040;-70
2022/03/12 06:11:27;;;;;;;4.40;2.85;;;;;;;16.47;21.01;99838.00;5105416;28;20039;-70
2022/03/12 06:14:00;;;;;;;7.40;2.88;;;;;;;16.51;21.25;99849.25;5114377;28;20036;-71
2022/03/12 06:16:27;;;;;;;4.82;2.83;;;;;;;16.53;21.28;99839.25;5114135;28;20032;-70
2022/03/12 06:18:53;;;;;;;5.57;3.42;;;;;;;16.55;21.51;99858.63;5114160;28;20032;-70
2022/03/12 06:21:19;;;;;;;4.28;2.83;;;;;;;16.58;21.45;99845.81;5113589;27;20110;-70
2022/03/12 06:23:45;;;;;;;4.78;3.00;;;;;;;16.63;21.23;99851.53;5113783;28;20139;-70
2022/03/12 06:26:14;;;;;;;5.90;3.03;;;;;;;16.61;21.22;99848.19;5113387;28;20504;-71
2022/03/12 06:28:44;;;;;;;7.07;2.92;;;;;;;16.65;21.55;99842.53;5113509;28;20042;-72
2022/03/12 06:31:14;;;;;;;5.53;2.88;;;;;;;16.67;21.07;99829.84;5113662;28;20039;-72
2022/03/12 06:33:41;;;;;;;3.40;2.47;;;;;;;16.73;21.65;99832.75;5113563;28;20046;-73
2022/03/12 06:36:08;;;;;;;4.88;3.05;;;;;;;16.76;21.42;99837.78;5113708;28;20035;-73
2022/03/12 06:38:35;;;;;;;5.18;3.08;;;;;;;16.80;21.08;99840.16;5113516;28;20034;-73
2022/03/12 06:41:01;;;;;;;5.60;2.50;;;;;;;16.78;21.29;99851.84;5113192;28;20084;-71
2022/03/12 06:43:28;;;;;;;5.07;3.13;;;;;;;16.76;21.31;99845.81;5113518;28;20043;-71
2022/03/12 06:46:01;;;;;;;5.20;3.20;;;;;;;16.75;21.41;99848.66;5113137;28;20121;-73
2022/03/12 06:48:29;;;;;;;5.75;3.63;;;;;;;16.76;21.60;99853.00;5113317;28;20036;-72
2022/03/12 06:50:55;;;;;;;6.97;2.97;;;;;;;16.80;21.24;99851.69;5092617;28;20034;-69
2022/03/12 06:53:21;;;;;;;5.63;3.38;;;;;;;16.84;21.60;99852.19;5092948;28;20028;-69
2022/03/12 06:55:47;;;;;;;6.28;3.22;;;;;;;16.87;21.16;99851.91;5092807;28;20062;-72
2022/03/12 06:58:12;;;;;;;5.30;3.20;;;;;;;16.89;21.41;99849.91;5092572;28;20526;-71
2022/03/12 07:00:38;;;;;;;4.82;3.10;;;;;;;16.86;21.66;99845.72;5092671;28;20076;-71
2022/03/12 07:03:04;;;;;;;4.45;2.53;;;;;;;16.86;21.57;99851.06;5092511;28;20394;-71
2022/03/12 07:05:30;;;;;;;3.17;2.30;;;;;;;16.89;21.65;99856.13;5092410;28;20036;-70
2022/03/12 07:07:56;;;;;;;3.95;2.95;;;;;;;16.90;21.71;99847.09;5092776;28;20510;-70
2022/03/12 07:10:22;;;;;;;5.80;2.90;;;;;;;16.94;21.36;99863.66;5095626;28;20445;-69
2022/03/12 07:12:48;;;;;;;2.45;2.17;;;;;;;16.98;21.30;99865.09;5112733;28;20114;-70
2022/03/12 07:15:15;;;;;;;5.72;2.65;;;;;;;16.97;21.50;99866.06;5113087;28;20035;-70
2022/03/12 07:17:42;;;;;;;4.35;2.55;;;;;;;16.99;21.67;99869.41;5113057;28;20054;-68
2022/03/12 07:20:09;;;;;;;7.13;2.92;;;;;;;17.02;21.42;99874.44;5112440;28;20028;-71
2022/03/12 07:22:35;;;;;;;5.15;3.00;;;;;;;17.06;21.64;99872.28;5112647;28;20058;-72
2022/03/12 07:25:01;;;;;;;4.68;3.17;;;;;;;17.08;21.36;99873.84;5112483;28;20561;-72
2022/03/12 07:27:27;;;;;;;4.07;2.92;;;;;;;17.10;21.95;99875.53;5112364;28;20123;-72
2022/03/12 07:29:53;;;;;;;3.97;2.92;;;;;;;17.12;21.41;99881.56;5112484;28;20031;-71
2022/03/12 07:32:20;;;;;;;4.43;3.15;;;;;;;17.13;21.52;99878.72;5112427;28;20405;-72
2022/03/12 07:34:46;;;;;;;4.55;2.92;;;;;;;17.11;21.69;99869.19;5112253;27;20235;-71
2022/03/12 07:37:12;;;;;;;6.25;3.10;;;;;;;17.12;21.83;99876.22;5112133;28;20379;-71
2022/03/12 07:39:40;;;;;;;5.25;2.85;;;;;;;17.14;21.71;99867.03;5097632;28;20120;-71
2022/03/12 07:42:06;;;;;;;5.88;3.17;;;;;;;17.16;21.47;99865.03;5091976;28;20032;-71
2022/03/12 07:44:32;;;;;;;4.35;2.97;;;;;;;17.18;21.84;99876.44;5092179;28;20024;-71
2022/03/12 07:46:58;;;;;;;3.95;2.58;;;;;;;17.19;21.68;99872.75;5091908;28;20036;-71
2022/03/12 07:49:25;;;;;;;6.20;4.22;;;;;;;17.23;21.71;99876.78;5091754;28;20391;-72
2022/03/12 07:51:50;;;;;;;2.95;2.38;;;;;;;17.29;21.78;99875.31;5091641;28;20036;-70
2022/03/12 07:54:16;;;;;;;6.63;2.40;;;;;;;17.33;21.72;99868.66;5091527;28;20036;-70
2022/03/12 07:56:43;;;;;;;4.72;2.97;;;;;;;17.38;21.76;99874.38;5091765;28;20168;-70
2022/03/12 07:59:10;;;;;;;5.05;2.70;;;;;;;17.41;21.48;99880.44;5091837;28;20506;-71
2022/03/12 08:01:36;;;;;;;4.90;2.78;;;;;;;17.43;21.74;99873.91;5091554;28;20063;-71
2022/03/12 08:04:02;;;;;;;4.65;2.90;;;;;;;17.45;21.79;99874.59;5091911;28;20032;-71
2022/03/12 08:06:31;;;;;;;4.22;3.03;;;;;;;17.45;21.80;99868.41;5091807;28;20036;-73
2022/03/12 08:08:57;;;;;;;4.82;2.92;;;;;;;17.45;21.62;99871.06;5091489;28;20032;-72
2022/03/12 08:11:30;;;;;;;4.28;3.30;;;;;;;17.44;21.57;99875.59;5091641;28;20176;-72
2022/03/12 08:14:01;;;;;;;7.57;3.00;;;;;;;17.47;21.87;99880.63;5091524;28;20560;-71
2022/03/12 08:16:33;;;;;;;4.38;2.95;;;;;;;17.47;21.89;99874.44;5095664;28;20040;-73
2022/03/12 08:19:00;;;;;;;5.20;3.53;;;;;;;17.51;21.63;99881.97;5095462;28;20039;-73
2022/03/12 08:21:26;;;;;;;5.63;3.25;;;;;;;17.50;21.59;99877.63;5095291;28;20032;-71
2022/03/12 08:23:51;;;;;;;4.53;2.88;;;;;;;17.52;21.54;99872.13;5095234;28;20208;-71
2022/03/12 08:26:18;;;;;;;5.50;3.30;;;;;;;17.56;21.72;99878.84;5103098;28;20583;-71
2022/03/12 08:28:44;;;;;;;7.15;3.80;;;;;;;17.57;21.58;99877.88;5115829;28;20036;-70
2022/03/12 08:31:10;;;;;;;7.22;3.08;;;;;;;17.59;21.61;99878.50;5115683;28;20080;-71
2022/03/12 08:33:37;;;;;;;6.40;3.40;;;;;;;17.60;21.79;99877.53;5115917;28;20043;-71
2022/03/12 08:36:04;;;;;;;3.65;3.10;;;;;;;17.59;21.84;99883.88;5115960;28;20406;-72
2022/03/12 08:38:32;;;;;;;5.97;4.22;;;;;;;17.57;21.86;99880.53;5115847;28;20039;-72
2022/03/12 08:40:58;;;;;;;5.68;3.75;;;;;;;17.54;21.80;99873.66;5115740;28;20135;-72
2022/03/12 08:43:24;;;;;;;5.75;2.78;;;;;;;17.57;21.78;99887.72;5115597;28;20043;-71
2022/03/12 08:45:49;;;;;;;6.15;3.53;;;;;;;17.61;21.71;99884.56;5115505;28;20093;-72
2022/03/12 08:48:16;;;;;;;7.68;3.67;;;;;;;17.62;21.67;99885.41;5116620;28;20038;-72
2022/03/12 08:50:43;;;;;;;6.85;3.38;;;;;;;17.62;21.65;99891.59;5115483;28;20077;-72
2022/03/12 08:53:09;;;;;;;5.15;3.55;;;;;;;17.63;21.71;99887.09;5115466;28;20482;-72
2022/03/12 08:55:35;;;;;;;3.95;2.63;;;;;;;17.63;21.83;99884.41;5115273;28;20028;-72
2022/03/12 08:58:00;;;;;;;7.72;3.70;;;;;;;17.64;21.48;99883.41;5115340;28;20032;-73
2022/03/12 09:00:26;;;;;;;4.45;3.20;;;;;;;17.65;21.80;99890.41;5110407;28;20036;-71
2022/03/12 09:02:52;;;;;;;5.07;3.50;;;;;;;17.69;21.65;99891.78;5095653;28;20035;-72
2022/03/12 09:05:19;;;;;;;5.32;3.97;;;;;;;17.68;21.64;99882.94;5096223;28;20032;-72
2022/03/12 09:07:45;;;;;;;5.82;3.95;;;;;;;17.74;21.84;99886.81;5113704;28;20024;-73
2022/03/12 09:10:12;;;;;;;6.57;3.78;;;;;;;17.74;21.60;99889.50;5115831;28;20031;-70
2022/03/12 09:12:40;;;;;;;7.03;4.15;;;;;;;17.77;21.68;99899.03;5115260;28;20171;-73
2022/03/12 09:15:07;;;;;;;8.07;3.60;;;;;;;17.78;21.71;99900.72;5116013;28;20088;-72
2022/03/12 09:17:33;;;;;;;5.60;3.80;;;;;;;17.79;21.78;99897.84;5114856;28;20059;-72
2022/03/12 09:19:58;;;;;;;5.32;3.80;;;;;;;17.79;21.64;99897.84;5115488;28;20066;-71
2022/03/12 09:22:24;;;;;;;5.85;3.70;;;;;;;17.79;21.63;99897.84;5115630;28;20497;-72
2022/03/12 09:24:50;;;;;;;6.05;3.70;;;;;;;17.81;21.51;99905.75;5115426;28;20058;-72
2022/03/12 09:27:16;;;;;;;6.00;3.45;;;;;;;17.81;21.37;99895.88;5115351;28;20420;-72
2022/03/12 09:29:42;;;;;;;5.40;3.40;;;;;;;17.84;21.46;99900.91;5114632;28;20031;-71
2022/03/12 09:32:08;;;;;;;3.55;2.85;;;;;;;17.84;21.61;99897.41;5114435;28;20038;-72
2022/03/12 09:34:35;;;;;;;4.40;3.50;;;;;;;17.84;21.81;99897.41;5112059;27;20122;-72
2022/03/12 09:37:02;;;;;;;5.40;3.08;;;;;;;17.84;21.66;99900.09;5115328;28;20035;-72
2022/03/12 09:39:28;;;;;;;4.72;3.40;;;;;;;17.87;21.60;99902.41;5115206;28;20070;-72
2022/03/12 09:41:54;;;;;;;4.38;3.28;;;;;;;17.89;21.67;99907.63;5114409;28;20112;-72
2022/03/12 09:44:19;;;;;;;3.88;3.13;;;;;;;17.89;21.56;99905.78;5115552;28;20042;-72
2022/03/12 09:46:45;;;;;;;4.18;3.03;;;;;;;17.88;21.57;99908.63;5114628;28;20039;-72
2022/03/12 09:49:14;;;;;;;4.85;3.15;;;;;;;17.89;21.66;99918.34;5111531;27;20032;-72
2022/03/12 09:51:42;;;;;;;3.90;3.05;;;;;;;17.89;21.48;99916.47;5094890;28;20043;-73
2022/03/12 09:54:07;;;;;;;4.93;3.22;;;;;;;17.87;21.43;99921.16;5094821;28;20501;-73
2022/03/12 09:56:33;;;;;;;5.10;3.50;;;;;;;17.87;21.48;99915.81;5101382;28;20107;-73
2022/03/12 09:58:59;;;;;;;6.57;4.45;;;;;;;17.85;21.43;99913.28;5113159;27;20043;-72
2022/03/12 10:01:25;;;;;;;3.80;2.92;;;;;;;17.87;21.58;99913.13;5112168;27;20035;-71
2022/03/12 10:03:50;;;;;;;4.03;2.75;;;;;;;17.88;21.83;99919.34;5112371;28;20039;-73
2022/03/12 10:06:16;;;;;;;4.47;2.53;;;;;;;17.83;21.88;99917.13;5113666;27;20050;-72
2022/03/12 10:08:43;;;;;;;4.22;2.65;;;;;;;17.87;22.13;99915.81;5114941;27;20038;-72
2022/03/12 10:11:08;;;;;;;4.07;3.05;;;;;;;17.87;21.78;99907.78;5113459;28;20481;-72
2022/03/12 10:13:34;;;;;;;5.50;3.10;;;;;;;17.89;21.80;99903.09;5114607;28;20049;-72
2022/03/12 10:16:01;;;;;;;4.47;2.83;;;;;;;17.93;21.56;99907.16;5114108;28;20537;-72
2022/03/12 10:18:27;;;;;;;3.88;2.92;;;;;;;17.93;21.43;99911.69;5113251;27;20046;-71
2022/03/12 10:20:53;;;;;;;3.38;2.67;;;;;;;17.94;21.52;99908.00;5113941;27;20414;-72
2022/03/12 10:23:19;;;;;;;3.90;3.10;;;;;;;17.94;21.69;99916.84;5112711;27;20114;-74
2022/03/12 10:25:45;;;;;;;6.18;3.35;;;;;;;17.94;21.71;99908.81;5113491;28;20046;-72
2022/03/12 10:28:12;;;;;;;4.10;3.25;;;;;;;17.96;21.53;99914.00;5114307;28;20031;-72
2022/03/12 10:30:38;;;;;;;6.30;3.22;;;;;;;18.00;21.51;99920.75;5113742;28;20032;-72
2022/03/12 10:33:05;;;;;;;3.95;3.05;;;;;;;18.04;21.76;99914.09;5114812;28;20027;-72
2022/03/12 10:35:36;;;;;;;4.38;2.90;;;;;;;18.07;21.69;99916.47;5113412;28;20084;-72
2022/03/12 10:38:09;;;;;;;5.85;2.97;;;;;;;18.06;21.84;99920.13;5113149;28;20038;-72
2022/03/12 10:40:35;;;;;;;4.50;3.15;;;;;;;18.05;21.71;99923.81;5108370;28;20134;-72
2022/03/12 10:43:05;;;;;;;3.83;3.03;;;;;;;18.08;21.79;99920.81;5113719;28;20557;-71
2022/03/12 10:45:39;;;;;;;4.50;2.92;;;;;;;18.11;21.64;99922.31;5114246;28;20036;-72
2022/03/12 10:48:05;;;;;;;4.05;3.13;;;;;;;18.11;21.65;99925.81;5113940;28;20035;-73
2022/03/12 10:50:42;;;;;;;4.10;3.03;;;;;;;18.11;21.64;99919.66;5113892;28;20506;-72
2022/03/12 10:53:08;;;;;;;5.25;3.35;;;;;;;18.14;21.62;99924.69;5113114;27;20084;-71
2022/03/12 10:55:37;;;;;;;4.38;2.95;;;;;;;18.15;21.66;99929.88;5112905;28;20035;-74
2022/03/12 10:58:19;;;;;;;5.15;2.92;;;;;;;18.17;21.74;99929.69;5112091;28;20046;-72
2022/03/12 11:00:47;;;;;;;5.93;2.88;;;;;;;18.14;21.62;99916.66;5113118;28;20031;-72
2022/03/12 11:03:20;;;;;;;5.45;2.90;;;;;;;18.18;21.25;99917.16;5113941;28;20417;-72
2022/03/12 11:05:46;;;;;;;4.63;2.85;;;;;;;18.22;21.59;99931.91;5113479;28;20391;-70
2022/03/12 11:08:21;;;;;;;3.55;2.80;;;;;;;18.23;21.17;99931.75;5112880;28;20104;-72
2022/03/12 11:10:54;;;;;;;5.43;3.30;;;;;;;18.22;21.73;99927.38;5106805;28;20047;-71
2022/03/12 11:13:51;;;;;;;4.60;2.80;;;;;;;18.26;21.70;99938.59;5093862;28;20036;-72
2022/03/12 11:16:24;;;;;;;4.32;3.13;;;;;;;18.25;21.58;99931.56;5112125;28;20410;-72
2022/03/12 11:18:52;;;;;;;4.20;2.90;;;;;;;18.28;21.50;99937.47;5113137;28;20081;-72
2022/03/12 11:21:28;;;;;;;3.80;2.40;;;;;;;18.28;21.53;99932.13;5112331;28;20051;-72
2022/03/12 11:23:55;;;;;;;4.65;2.83;;;;;;;18.30;21.38;99932.78;5113389;28;20063;-72
2022/03/12 11:26:21;;;;;;;4.22;3.20;;;;;;;18.30;21.44;99938.16;5113051;28;20039;-72
2022/03/12 11:28:56;;;;;;;7.68;2.95;;;;;;;18.31;21.69;99941.66;5113613;28;20530;-72
2022/03/12 11:31:42;;;;;;;6.35;2.63;;;;;;;18.33;21.58;99938.81;5110366;28;20055;-72
2022/03/12 11:34:20;;;;;;;7.85;2.70;;;;;;;18.33;21.69;99938.81;5112615;28;20086;-72